createdAt,value
2022-07-29T00:00:02.108Z,2.90
2022-07-29T00:02:29.328Z,3.00
2022-07-29T00:04:56.027Z,2.87
2022-07-29T00:07:22.734Z,2.60
2022-07-29T00:09:52.119Z,2.80
2022-07-29T00:12:25.602Z,2.50
2022-07-29T00:14:55.272Z,3.03
2022-07-29T00:17:22.050Z,2.63
2022-07-29T00:19:48.748Z,2.47
2022-07-29T00:22:16.219Z,2.20
2022-07-29T00:24:43.136Z,2.23
2022-07-29T00:27:09.893Z,2.93
2022-07-29T00:29:36.543Z,2.70
2022-07-29T00:32:03.809Z,2.93
2022-07-29T00:34:49.353Z,2.43
2022-07-29T00:37:16.036Z,2.67
2022-07-29T00:39:42.729Z,2.53
2022-07-29T00:42:10.527Z,2.40
2022-07-29T00:44:39.082Z,2.73
2022-07-29T00:47:06.199Z,2.80
2022-07-29T00:49:33.789Z,2.60
2022-07-29T00:52:03.430Z,2.33
2022-07-29T00:54:30.274Z,2.53
2022-07-29T00:57:00.550Z,2.60
2022-07-29T00:59:34.461Z,2.60
2022-07-29T01:02:02.182Z,2.60
2022-07-29T01:04:30.784Z,2.40
2022-07-29T01:06:57.677Z,2.60
2022-07-29T01:09:42.915Z,2.53
2022-07-29T01:12:11.811Z,3.00
2022-07-29T01:14:38.976Z,3.57
2022-07-29T01:17:27.735Z,2.50
2022-07-29T01:20:33.061Z,3.43
2022-07-29T01:23:49.897Z,2.90
2022-07-29T01:26:44.532Z,2.93
2022-07-29T01:29:38.817Z,3.20
2022-07-29T01:32:18.066Z,2.83
2022-07-29T01:35:23.447Z,3.53
2022-07-29T01:37:56.860Z,2.93
2022-07-29T01:40:35.984Z,3.47
2022-07-29T01:43:14.074Z,2.73
2022-07-29T01:45:54.594Z,3.40
2022-07-29T01:48:24.541Z,3.30
2022-07-29T01:51:07.642Z,2.30
2022-07-29T01:53:43.499Z,2.93
2022-07-29T01:56:11.689Z,2.80
2022-07-29T01:58:40.564Z,2.70
2022-07-29T02:01:10.054Z,2.37
2022-07-29T02:03:37.892Z,2.43
2022-07-29T02:06:05.900Z,2.80
2022-07-29T02:08:34.031Z,3.10
2022-07-29T02:11:01.906Z,2.53
2022-07-29T02:13:30.063Z,3.10
2022-07-29T02:15:58.624Z,2.90
2022-07-29T02:18:26.799Z,3.00
2022-07-29T02:20:55.401Z,3.60
2022-07-29T02:23:24.318Z,3.27
2022-07-29T02:25:53.791Z,2.77
2022-07-29T02:28:21.682Z,3.37
2022-07-29T02:30:49.096Z,3.17
2022-07-29T02:33:17.719Z,3.80
2022-07-29T02:35:47.275Z,3.33
2022-07-29T02:38:34.484Z,3.20
2022-07-29T02:41:12.528Z,3.60
2022-07-29T02:43:40.651Z,2.90
2022-07-29T02:46:12.674Z,3.20
2022-07-29T02:49:20.344Z,2.70
2022-07-29T02:51:52.769Z,3.00
2022-07-29T02:54:36.290Z,2.93
2022-07-29T02:57:07.846Z,3.50
2022-07-29T02:59:36.660Z,2.53
2022-07-29T03:02:03.626Z,2.90
2022-07-29T03:04:32.260Z,2.90
2022-07-29T03:07:00.631Z,2.80
2022-07-29T03:09:28.250Z,3.07
2022-07-29T03:11:56.132Z,3.57
2022-07-29T03:14:24.053Z,2.70
2022-07-29T03:16:51.654Z,2.70
2022-07-29T03:19:19.242Z,3.40
2022-07-29T03:21:45.915Z,2.87
2022-07-29T03:24:34.883Z,3.30
2022-07-29T03:27:02.127Z,2.73
2022-07-29T03:29:33.222Z,2.80
2022-07-29T03:32:01.039Z,3.40
2022-07-29T03:34:29.471Z,2.50
2022-07-29T03:36:56.183Z,2.90
2022-07-29T03:39:25.560Z,2.30
2022-07-29T03:41:55.002Z,4.10
2022-07-29T03:44:22.193Z,2.93
2022-07-29T03:46:50.189Z,2.63
2022-07-29T03:49:18.124Z,3.17
2022-07-29T03:51:44.898Z,3.40
2022-07-29T03:54:11.993Z,3.23
2022-07-29T03:56:41.431Z,3.07
2022-07-29T03:59:08.607Z,3.27
2022-07-29T04:01:35.741Z,2.70
2022-07-29T04:04:03.230Z,3.30
2022-07-29T04:06:30.037Z,3.03
2022-07-29T04:08:56.765Z,3.60
2022-07-29T04:11:23.553Z,4.47
2022-07-29T04:13:50.183Z,3.70
2022-07-29T04:16:17.000Z,3.17
2022-07-29T04:18:43.667Z,3.20
2022-07-29T04:21:10.346Z,3.53
2022-07-29T04:23:36.978Z,3.87
2022-07-29T04:26:20.882Z,3.70
2022-07-29T04:28:47.587Z,4.03
2022-07-29T04:31:14.882Z,3.83
2022-07-29T04:33:41.586Z,4.00
2022-07-29T04:36:28.570Z,4.00
2022-07-29T04:38:55.099Z,3.90
2022-07-29T04:41:21.901Z,3.20
2022-07-29T04:43:48.803Z,3.80
2022-07-29T04:46:15.624Z,5.70
2022-07-29T04:48:42.651Z,4.40
2022-07-29T04:51:09.357Z,4.00
2022-07-29T04:53:36.082Z,3.87
2022-07-29T04:56:03.331Z,3.90
2022-07-29T04:58:30.102Z,3.63
2022-07-29T05:00:56.973Z,3.83
2022-07-29T05:03:23.784Z,3.60
2022-07-29T05:05:50.622Z,3.53
2022-07-29T05:08:17.361Z,3.20
2022-07-29T05:10:44.082Z,3.20
2022-07-29T05:13:10.868Z,2.80
2022-07-29T05:15:38.189Z,2.83
2022-07-29T05:18:05.291Z,2.90
2022-07-29T05:20:32.500Z,4.07
2022-07-29T05:23:00.300Z,4.60
2022-07-29T05:25:43.123Z,4.93
2022-07-29T05:28:12.120Z,4.70
2022-07-29T05:30:39.080Z,4.73
2022-07-29T05:33:05.932Z,3.83
2022-07-29T05:35:32.763Z,4.20
2022-07-29T05:37:59.531Z,4.37
2022-07-29T05:40:26.422Z,4.30
2022-07-29T05:42:53.253Z,4.10
2022-07-29T05:45:19.991Z,4.73
2022-07-29T05:47:46.811Z,4.57
2022-07-29T05:50:13.819Z,4.30
2022-07-29T05:52:40.811Z,3.30
2022-07-29T05:55:07.978Z,3.67
2022-07-29T05:57:34.826Z,3.50
2022-07-29T06:00:01.636Z,3.63
2022-07-29T06:02:28.491Z,3.80
2022-07-29T06:04:55.470Z,4.00
2022-07-29T06:07:22.402Z,3.43
2022-07-29T06:09:49.210Z,4.33
2022-07-29T06:12:16.013Z,3.10
2022-07-29T06:14:42.821Z,3.50
2022-07-29T06:17:09.703Z,4.10
2022-07-29T06:19:37.512Z,4.10
2022-07-29T06:22:04.861Z,4.57
2022-07-29T06:24:31.869Z,4.27
2022-07-29T06:26:58.879Z,4.57
2022-07-29T06:29:25.844Z,3.87
2022-07-29T06:31:52.664Z,4.10
2022-07-29T06:34:20.262Z,4.13
2022-07-29T06:36:47.726Z,3.53
2022-07-29T06:39:15.709Z,3.53
2022-07-29T06:41:42.720Z,4.00
2022-07-29T06:44:09.991Z,3.67
2022-07-29T06:46:37.638Z,3.57
2022-07-29T06:49:05.637Z,3.10
2022-07-29T06:51:32.539Z,3.73
2022-07-29T06:54:02.782Z,3.83
2022-07-29T06:56:39.543Z,3.37
2022-07-29T06:59:08.201Z,2.90
2022-07-29T07:01:35.261Z,3.50
2022-07-29T07:04:02.120Z,3.00
2022-07-29T07:06:28.968Z,4.10
2022-07-29T07:08:55.929Z,4.10
2022-07-29T07:11:22.829Z,3.27
2022-07-29T07:13:49.690Z,3.93
2022-07-29T07:16:17.039Z,3.47
2022-07-29T07:18:46.269Z,3.53
2022-07-29T07:21:18.800Z,3.53
2022-07-29T07:23:46.579Z,3.47
2022-07-29T07:26:13.359Z,3.17
2022-07-29T07:28:40.290Z,3.37
2022-07-29T07:31:07.265Z,3.07
2022-07-29T07:33:34.082Z,3.23
2022-07-29T07:36:00.920Z,3.30
2022-07-29T07:38:27.828Z,3.20
2022-07-29T07:40:54.710Z,2.80
2022-07-29T07:43:21.655Z,3.43
2022-07-29T07:45:48.430Z,3.33
2022-07-29T07:48:15.368Z,3.10
2022-07-29T07:50:42.112Z,2.90
2022-07-29T07:53:08.998Z,3.90
2022-07-29T07:56:08.137Z,3.20
2022-07-29T07:58:27.985Z,3.13
2022-07-29T08:00:55.044Z,6.00
2022-07-29T08:03:22.093Z,3.17
2022-07-29T08:05:49.463Z,3.13
2022-07-29T08:08:16.269Z,3.30
2022-07-29T08:10:56.996Z,2.57
2022-07-29T08:13:28.241Z,2.30
2022-07-29T08:15:59.181Z,2.53
2022-07-29T08:18:27.492Z,2.97
2022-07-29T08:20:54.451Z,2.83
2022-07-29T08:23:21.681Z,3.03
2022-07-29T08:25:50.168Z,3.37
2022-07-29T08:28:18.147Z,3.03
2022-07-29T08:30:45.220Z,3.30
2022-07-29T08:33:12.268Z,2.83
2022-07-29T08:35:40.028Z,2.40
2022-07-29T08:38:07.109Z,2.83
2022-07-29T08:40:33.940Z,2.70
2022-07-29T08:43:07.146Z,3.27
2022-07-29T08:45:48.217Z,2.53
2022-07-29T08:48:16.719Z,2.83
2022-07-29T08:50:47.344Z,2.63
2022-07-29T08:53:16.359Z,3.33
2022-07-29T08:55:48.364Z,2.70
2022-07-29T08:58:16.550Z,3.17
2022-07-29T09:00:46.916Z,2.97
2022-07-29T09:03:19.503Z,2.93
2022-07-29T09:05:48.434Z,2.77
2022-07-29T09:08:17.163Z,2.83
2022-07-29T09:10:44.617Z,4.07
2022-07-29T09:13:11.399Z,2.27
2022-07-29T09:15:38.183Z,2.37
2022-07-29T09:18:04.980Z,2.70
2022-07-29T09:20:51.747Z,2.33
2022-07-29T09:23:23.203Z,2.50
2022-07-29T09:25:51.680Z,2.50
2022-07-29T09:28:19.332Z,2.73
2022-07-29T09:31:00.268Z,2.50
2022-07-29T09:33:35.495Z,2.13
2022-07-29T09:36:06.799Z,2.70
2022-07-29T09:38:34.542Z,2.40
2022-07-29T09:41:05.486Z,2.50
2022-07-29T09:43:33.073Z,3.07
2022-07-29T09:46:13.337Z,2.40
2022-07-29T09:48:40.453Z,3.03
2022-07-29T09:51:20.687Z,3.20
2022-07-29T09:53:49.301Z,3.17
2022-07-29T09:56:16.144Z,2.90
2022-07-29T09:58:42.841Z,2.30
2022-07-29T10:01:09.658Z,2.90
2022-07-29T10:04:05.814Z,2.70
2022-07-29T10:06:32.701Z,2.93
2022-07-29T10:09:12.485Z,2.77
2022-07-29T10:11:49.442Z,2.50
2022-07-29T10:14:16.911Z,2.07
2022-07-29T10:16:43.766Z,3.10
2022-07-29T10:19:10.832Z,3.17
2022-07-29T10:21:38.942Z,2.70
2022-07-29T10:24:06.469Z,3.37
2022-07-29T10:26:33.412Z,2.77
2022-07-29T10:29:00.662Z,2.73
2022-07-29T10:31:40.104Z,3.00
2022-07-29T10:34:22.698Z,2.50
2022-07-29T10:36:58.223Z,3.00
2022-07-29T10:39:49.912Z,2.37
2022-07-29T10:42:33.533Z,2.07
2022-07-29T10:45:01.653Z,2.17
2022-07-29T10:47:28.577Z,2.60
2022-07-29T10:50:01.322Z,2.10
2022-07-29T10:52:58.221Z,2.27
2022-07-29T10:55:35.748Z,2.67
2022-07-29T10:58:32.190Z,2.63
2022-07-29T11:00:59.227Z,2.50
2022-07-29T11:03:50.790Z,2.90
2022-07-29T11:06:26.859Z,2.70
2022-07-29T11:09:25.869Z,3.17
2022-07-29T11:12:04.971Z,2.60
2022-07-29T11:14:53.608Z,3.23
2022-07-29T11:17:21.024Z,3.70
2022-07-29T11:19:52.183Z,2.87
2022-07-29T11:22:35.901Z,3.30
2022-07-29T11:25:16.995Z,3.10
2022-07-29T11:27:45.890Z,3.77
2022-07-29T11:30:13.301Z,2.80
2022-07-29T11:32:44.825Z,3.27
2022-07-29T11:35:37.480Z,3.07
2022-07-29T11:38:27.802Z,3.50
2022-07-29T11:41:27.199Z,2.90
2022-07-29T11:43:59.279Z,3.40
2022-07-29T11:46:44.780Z,2.83
2022-07-29T11:49:12.147Z,3.20
2022-07-29T11:51:48.715Z,3.43
2022-07-29T11:54:18.341Z,3.17
2022-07-29T11:56:54.440Z,2.80
2022-07-29T11:59:21.978Z,3.23
2022-07-29T12:04:53.933Z,3.60
2022-07-29T12:07:34.623Z,3.63
2022-07-29T12:10:03.210Z,2.90
2022-07-29T12:12:30.066Z,3.60
2022-07-29T12:14:57.065Z,3.40
2022-07-29T12:17:34.429Z,3.17
2022-07-29T12:20:04.151Z,3.50
2022-07-29T12:22:33.381Z,4.17
2022-07-29T12:28:05.561Z,3.87
2022-07-29T12:30:42.379Z,4.03
2022-07-29T12:33:16.201Z,3.63
2022-07-29T12:35:45.901Z,3.90
2022-07-29T12:38:21.770Z,3.70
2022-07-29T12:40:49.510Z,4.27
2022-07-29T12:43:19.071Z,3.90
2022-07-29T12:45:49.547Z,3.73
2022-07-29T12:48:17.357Z,3.87
2022-07-29T12:50:55.658Z,4.60
2022-07-29T12:53:22.783Z,5.07
2022-07-29T12:55:52.770Z,4.20
2022-07-29T12:58:42.632Z,4.13
2022-07-29T13:01:19.122Z,4.00
2022-07-29T13:03:57.496Z,4.97
2022-07-29T13:06:51.127Z,4.77
2022-07-29T13:09:24.161Z,4.50
2022-07-29T13:11:53.030Z,4.97
2022-07-29T13:14:35.846Z,4.70
2022-07-29T13:17:11.095Z,4.27
2022-07-29T13:19:47.072Z,3.83
2022-07-29T13:22:16.252Z,3.60
2022-07-29T13:25:00.243Z,3.80
2022-07-29T13:27:28.766Z,4.70
2022-07-29T13:29:57.644Z,3.90
2022-07-29T13:32:29.093Z,4.03
2022-07-29T13:35:01.777Z,3.40
2022-07-29T13:37:35.289Z,3.43
2022-07-29T13:40:04.320Z,4.33
2022-07-29T13:42:32.562Z,3.70
2022-07-29T13:45:00.172Z,4.60
2022-07-29T13:47:32.119Z,4.20
2022-07-29T13:50:01.574Z,3.80
2022-07-29T13:52:28.664Z,3.40
2022-07-29T13:54:55.432Z,4.10
2022-07-29T13:57:22.235Z,3.27
2022-07-29T13:59:53.549Z,4.20
2022-07-29T14:02:21.255Z,3.70
2022-07-29T14:04:52.516Z,3.27
2022-07-29T14:07:19.291Z,2.90
2022-07-29T14:09:46.082Z,3.20
2022-07-29T14:12:13.041Z,3.03
2022-07-29T14:14:39.902Z,4.70
2022-07-29T14:17:07.734Z,5.20
2022-07-29T14:19:39.244Z,4.57
2022-07-29T14:22:07.689Z,4.70
2022-07-29T14:24:37.361Z,3.40
2022-07-29T14:27:05.609Z,3.70
2022-07-29T14:29:38.175Z,2.30
2022-07-29T14:32:10.175Z,2.90
2022-07-29T14:34:38.138Z,2.60
2022-07-29T14:37:06.849Z,2.93
2022-07-29T14:39:36.916Z,3.10
2022-07-29T14:42:06.559Z,2.90
2022-07-29T14:44:33.629Z,2.63
2022-07-29T14:47:01.042Z,1.90
2022-07-29T14:49:35.412Z,2.80
2022-07-29T14:52:02.262Z,2.83
2022-07-29T14:54:29.077Z,2.43
2022-07-29T14:56:58.505Z,2.17
2022-07-29T14:59:26.305Z,2.40
2022-07-29T15:01:53.304Z,2.53
2022-07-29T15:04:20.391Z,3.00
2022-07-29T15:06:47.302Z,1.93
2022-07-29T15:09:14.402Z,1.60
2022-07-29T15:11:41.167Z,1.83
2022-07-29T15:14:07.962Z,1.80
2022-07-29T15:16:37.242Z,1.93
2022-07-29T15:19:05.261Z,2.50
2022-07-29T15:21:32.131Z,2.30
2022-07-29T15:23:59.062Z,1.80
2022-07-29T15:26:25.863Z,1.93
2022-07-29T15:28:52.851Z,1.90
2022-07-29T15:31:22.407Z,2.63
2022-07-29T15:33:49.178Z,2.57
2022-07-29T15:36:42.148Z,2.70
2022-07-29T15:39:02.812Z,2.60
2022-07-29T15:41:29.573Z,3.30
2022-07-29T15:43:56.440Z,2.70
2022-07-29T15:46:41.982Z,1.73
2022-07-29T15:49:09.277Z,2.40
2022-07-29T15:51:36.152Z,2.50
2022-07-29T15:54:04.265Z,2.03
2022-07-29T15:56:32.025Z,2.60
2022-07-29T15:58:59.340Z,2.17
2022-07-29T16:01:27.926Z,2.50
2022-07-29T16:03:54.891Z,2.63
2022-07-29T16:06:22.019Z,1.80
2022-07-29T16:08:48.792Z,1.80
2022-07-29T16:11:15.630Z,2.73
2022-07-29T16:13:42.461Z,2.77
2022-07-29T16:16:09.327Z,3.03
2022-07-29T16:18:36.209Z,3.20
2022-07-29T16:21:03.261Z,2.60
2022-07-29T16:23:30.074Z,2.60
2022-07-29T16:26:00.024Z,2.87
2022-07-29T16:28:27.443Z,2.50
2022-07-29T16:30:54.219Z,2.90
2022-07-29T16:33:21.104Z,2.90
2022-07-29T16:35:47.842Z,4.20
2022-07-29T16:38:14.773Z,2.90
2022-07-29T16:40:41.773Z,3.43
2022-07-29T16:43:08.676Z,2.80
2022-07-29T16:45:46.491Z,2.60
2022-07-29T16:48:18.733Z,2.80
2022-07-29T16:50:46.091Z,2.63
2022-07-29T16:53:12.954Z,3.00
2022-07-29T16:55:41.987Z,2.70
2022-07-29T16:58:09.920Z,2.53
2022-07-29T17:00:36.878Z,2.60
2022-07-29T17:03:05.509Z,3.40
2022-07-29T17:05:50.765Z,2.50
2022-07-29T17:08:20.207Z,3.00
2022-07-29T17:10:47.509Z,2.90
2022-07-29T17:13:14.642Z,2.60
2022-07-29T17:15:42.674Z,2.77
2022-07-29T17:18:12.783Z,3.33
2022-07-29T17:20:41.385Z,2.90
2022-07-29T17:23:08.212Z,3.30
2022-07-29T17:25:35.002Z,2.90
2022-07-29T17:28:02.006Z,3.10
2022-07-29T17:30:29.713Z,2.73
2022-07-29T17:32:56.544Z,3.97
2022-07-29T17:35:42.190Z,3.20
2022-07-29T17:38:09.032Z,3.00
2022-07-29T17:40:35.963Z,3.10
2022-07-29T17:43:04.787Z,3.87
2022-07-29T17:45:50.165Z,3.40
2022-07-29T17:48:18.423Z,3.37
2022-07-29T17:50:45.699Z,3.63
2022-07-29T17:53:16.147Z,3.40
2022-07-29T17:55:45.619Z,3.10
2022-07-29T17:58:12.908Z,3.53
2022-07-29T18:00:40.122Z,2.80
2022-07-29T18:03:07.295Z,3.60
2022-07-29T18:05:34.322Z,3.40
2022-07-29T18:08:01.863Z,3.07
2022-07-29T18:10:28.604Z,2.67
2022-07-29T18:12:55.420Z,2.67
2022-07-29T18:15:22.190Z,3.47
2022-07-29T18:17:56.557Z,2.40
2022-07-29T18:20:24.420Z,3.57
2022-07-29T18:22:51.273Z,3.50
2022-07-29T18:25:18.235Z,3.50
2022-07-29T18:27:45.353Z,3.20
2022-07-29T18:30:12.282Z,3.10
2022-07-29T18:32:39.013Z,3.13
2022-07-29T18:35:06.502Z,3.07
2022-07-29T18:38:01.216Z,2.87
2022-07-29T18:40:26.411Z,2.87
2022-07-29T18:42:57.013Z,3.47
2022-07-29T18:45:28.768Z,3.17
2022-07-29T18:47:58.904Z,5.00
2022-07-29T18:50:29.288Z,3.70
2022-07-29T18:52:58.935Z,3.80
2022-07-29T18:55:26.751Z,3.77
2022-07-29T18:57:56.134Z,3.83
2022-07-29T19:00:24.587Z,4.23
2022-07-29T19:02:52.825Z,3.30
2022-07-29T19:05:19.891Z,3.40
2022-07-29T19:07:49.537Z,2.97
2022-07-29T19:10:16.513Z,3.70
2022-07-29T19:12:43.943Z,3.40
2022-07-29T19:15:11.613Z,3.50
2022-07-29T19:17:39.030Z,3.10
2022-07-29T19:20:07.792Z,3.40
2022-07-29T19:22:35.499Z,3.90
2022-07-29T19:25:04.462Z,3.20
2022-07-29T19:27:31.866Z,3.30
2022-07-29T19:30:00.299Z,3.60
2022-07-29T19:32:27.930Z,4.37
2022-07-29T19:35:13.723Z,3.50
2022-07-29T19:37:40.718Z,3.50
2022-07-29T19:40:07.999Z,3.20
2022-07-29T19:42:35.591Z,3.80
2022-07-29T19:45:02.486Z,5.03
2022-07-29T19:47:29.292Z,4.00
2022-07-29T19:49:56.457Z,3.53
2022-07-29T19:52:23.342Z,3.93
2022-07-29T19:54:50.135Z,3.67
2022-07-29T19:57:16.910Z,4.23
2022-07-29T19:59:44.340Z,3.70
2022-07-29T20:02:12.757Z,4.17
2022-07-29T20:04:39.895Z,4.03
2022-07-29T20:07:07.286Z,4.97
2022-07-29T20:09:34.543Z,4.73
2022-07-29T20:12:01.596Z,5.63
2022-07-29T20:14:29.969Z,4.10
2022-07-29T20:16:56.914Z,4.30
2022-07-29T20:19:24.940Z,3.60
2022-07-29T20:21:51.797Z,2.83
2022-07-29T20:24:19.466Z,2.40
2022-07-29T20:26:46.312Z,2.73
2022-07-29T20:29:14.116Z,2.53
2022-07-29T20:31:43.412Z,3.57
2022-07-29T20:34:10.430Z,3.53
2022-07-29T20:36:37.724Z,3.00
2022-07-29T20:39:08.857Z,1.63
2022-07-29T20:41:36.011Z,2.43
2022-07-29T20:44:03.609Z,2.27
2022-07-29T20:46:30.388Z,1.47
2022-07-29T20:48:57.297Z,1.90
2022-07-29T20:51:24.321Z,1.60
2022-07-29T20:53:51.086Z,2.50
2022-07-29T20:56:17.939Z,1.60
2022-07-29T20:58:44.810Z,2.17
2022-07-29T21:01:11.658Z,1.57
2022-07-29T21:03:38.420Z,1.93
2022-07-29T21:06:05.271Z,1.57
2022-07-29T21:08:32.208Z,2.67
2022-07-29T21:10:58.971Z,1.80
2022-07-29T21:13:25.730Z,1.73
2022-07-29T21:15:55.859Z,1.37
2022-07-29T21:18:32.573Z,1.50
2022-07-29T21:21:03.866Z,1.80
2022-07-29T21:23:30.826Z,1.97
2022-07-29T21:25:57.999Z,1.80
2022-07-29T21:28:27.566Z,1.60
2022-07-29T21:30:56.315Z,1.60
2022-07-29T21:33:23.677Z,2.07
2022-07-29T21:38:37.826Z,1.33
2022-07-29T21:41:05.896Z,1.17
2022-07-29T21:43:32.812Z,2.70
2022-07-29T21:46:00.435Z,1.77
2022-07-29T21:48:28.152Z,1.90
2022-07-29T21:50:55.086Z,1.63
2022-07-29T21:53:22.847Z,1.53
2022-07-29T21:55:51.530Z,2.07
2022-07-29T21:58:22.113Z,1.67
2022-07-29T22:00:49.162Z,2.20
2022-07-29T22:03:16.565Z,1.80
2022-07-29T22:05:44.396Z,2.03
2022-07-29T22:08:11.230Z,1.73
2022-07-29T22:10:37.915Z,1.43
2022-07-29T22:13:04.708Z,1.70
2022-07-29T22:15:32.570Z,1.37
2022-07-29T22:17:59.248Z,1.50
2022-07-29T22:20:26.604Z,1.17
2022-07-29T22:22:53.552Z,1.47
2022-07-29T22:25:20.309Z,1.60
2022-07-29T22:27:47.103Z,1.37
2022-07-29T22:30:14.221Z,1.27
2022-07-29T22:32:41.353Z,1.97
2022-07-29T22:35:08.289Z,1.10
2022-07-29T22:37:35.223Z,1.60
2022-07-29T22:40:02.029Z,1.27
2022-07-29T22:42:28.708Z,1.20
2022-07-29T22:44:55.463Z,1.37
2022-07-29T22:47:38.780Z,1.27
2022-07-29T22:50:09.098Z,1.57
2022-07-29T22:52:35.786Z,1.73
2022-07-29T22:55:04.138Z,2.30
2022-07-29T22:57:30.874Z,2.00
2022-07-29T22:59:57.618Z,1.63
2022-07-29T23:02:24.269Z,1.17
2022-07-29T23:04:50.892Z,1.50
2022-07-29T23:07:17.836Z,1.53
2022-07-29T23:09:44.512Z,1.70
2022-07-29T23:12:11.247Z,1.50
2022-07-29T23:14:37.938Z,1.10
2022-07-29T23:17:05.181Z,1.50
2022-07-29T23:19:32.343Z,1.40
2022-07-29T23:21:59.087Z,1.07
2022-07-29T23:24:25.746Z,1.67
2022-07-29T23:26:52.484Z,1.37
2022-07-29T23:29:19.147Z,1.57
2022-07-29T23:31:48.225Z,1.53
2022-07-29T23:34:15.207Z,1.37
2022-07-29T23:36:42.451Z,1.17
2022-07-29T23:39:13.358Z,1.60
2022-07-29T23:41:40.455Z,1.37
2022-07-29T23:44:07.226Z,1.20
2022-07-29T23:46:34.107Z,1.20
2022-07-29T23:49:00.936Z,1.47
2022-07-29T23:51:29.248Z,1.30
2022-07-29T23:53:56.214Z,1.43
2022-07-29T23:56:22.950Z,1.20
2022-07-29T23:58:49.675Z,1.40
